createdAt,value
2018-02-13T00:00:27.954Z,87.60
2018-02-13T00:02:55.985Z,87.20
2018-02-13T00:05:23.624Z,87.20
2018-02-13T00:07:51.221Z,87.30
2018-02-13T00:10:18.793Z,87.20
2018-02-13T00:12:46.385Z,87.10
2018-02-13T00:15:13.968Z,87.10
2018-02-13T00:17:41.546Z,87.10
2018-02-13T00:20:09.117Z,87.10
2018-02-13T00:22:48.437Z,87.10
2018-02-13T00:25:16.053Z,87.30
2018-02-13T00:27:43.622Z,87.30
2018-02-13T00:30:11.210Z,87.60
2018-02-13T00:32:38.805Z,87.70
2018-02-13T00:35:06.405Z,87.70
2018-02-13T00:37:33.949Z,87.70
2018-02-13T00:40:01.549Z,87.70
2018-02-13T00:42:29.102Z,87.90
2018-02-13T00:44:56.699Z,88.00
2018-02-13T00:47:24.341Z,88.00
2018-02-13T00:49:51.919Z,88.00
2018-02-13T00:52:19.513Z,88.00
2018-02-13T00:54:47.327Z,88.10
2018-02-13T00:57:14.958Z,88.10
2018-02-13T00:59:42.562Z,88.30
2018-02-13T01:02:10.509Z,88.10
2018-02-13T01:04:38.356Z,88.10
2018-02-13T01:07:05.954Z,88.00
2018-02-13T01:09:33.533Z,87.90
2018-02-13T01:12:01.362Z,88.00
2018-02-13T01:14:29.187Z,88.00
2018-02-13T01:16:56.762Z,88.00
2018-02-13T01:19:24.328Z,88.00
2018-02-13T01:21:51.943Z,87.90
2018-02-13T01:24:19.577Z,88.00
2018-02-13T01:26:47.561Z,87.90
2018-02-13T01:29:15.124Z,87.90
2018-02-13T01:31:42.713Z,87.90
2018-02-13T01:34:10.342Z,87.80
2018-02-13T01:36:37.925Z,87.80
2018-02-13T01:39:05.526Z,87.70
2018-02-13T01:41:33.142Z,87.80
2018-02-13T01:44:00.730Z,88.10
2018-02-13T01:46:28.549Z,88.20
2018-02-13T01:48:56.141Z,88.10
2018-02-13T01:51:23.764Z,87.80
2018-02-13T01:53:51.378Z,87.80
2018-02-13T01:56:19.310Z,87.80
2018-02-13T01:58:46.889Z,87.90
2018-02-13T02:01:14.483Z,88.00
2018-02-13T02:03:42.054Z,88.10
2018-02-13T02:06:09.662Z,88.10
2018-02-13T02:08:37.237Z,88.00
2018-02-13T02:11:04.843Z,88.10
2018-02-13T02:13:32.433Z,88.00
2018-02-13T02:16:00.080Z,88.10
2018-02-13T02:18:27.642Z,88.20
2018-02-13T02:20:55.216Z,88.50
2018-02-13T02:23:22.805Z,88.90
2018-02-13T02:25:50.766Z,88.60
2018-02-13T02:28:18.342Z,88.60
2018-02-13T02:30:45.959Z,88.40
2018-02-13T02:33:13.595Z,88.50
2018-02-13T02:35:41.159Z,88.50
2018-02-13T02:38:08.757Z,88.50
2018-02-13T02:40:36.318Z,88.50
2018-02-13T02:43:06.715Z,89.20
2018-02-13T02:45:34.283Z,89.40
2018-02-13T02:48:01.894Z,89.20
2018-02-13T02:50:29.460Z,88.60
2018-02-13T02:52:57.058Z,88.30
2018-02-13T02:55:24.602Z,88.00
2018-02-13T02:57:52.232Z,87.90
2018-02-13T03:00:19.810Z,87.80
2018-02-13T03:02:47.410Z,87.60
2018-02-13T03:05:15.009Z,87.60
2018-02-13T03:07:42.614Z,87.70
2018-02-13T03:10:10.278Z,87.80
2018-02-13T03:12:37.872Z,88.30
2018-02-13T03:15:05.431Z,88.60
2018-02-13T03:17:33.397Z,88.80
2018-02-13T03:20:01.017Z,88.70
2018-02-13T03:22:28.569Z,88.50
2018-02-13T03:24:56.157Z,88.30
2018-02-13T03:27:23.743Z,88.40
2018-02-13T03:29:51.341Z,88.50
2018-02-13T03:32:18.941Z,88.50
2018-02-13T03:34:46.937Z,89.40
2018-02-13T03:37:14.551Z,89.40
2018-02-13T03:39:42.169Z,89.40
2018-02-13T03:42:09.732Z,88.70
2018-02-13T03:44:37.373Z,88.40
2018-02-13T03:47:04.955Z,88.00
2018-02-13T03:49:32.579Z,88.10
2018-02-13T03:52:00.143Z,88.40
2018-02-13T03:54:27.771Z,88.40
2018-02-13T03:56:55.326Z,88.30
2018-02-13T03:59:23.345Z,88.30
2018-02-13T04:01:50.909Z,88.30
2018-02-13T04:04:18.879Z,88.40
2018-02-13T04:06:46.517Z,88.50
2018-02-13T04:09:14.090Z,88.70
2018-02-13T04:11:41.652Z,88.80
2018-02-13T04:14:09.231Z,88.70
2018-02-13T04:16:36.860Z,88.60
2018-02-13T04:19:04.514Z,88.60
2018-02-13T04:21:32.089Z,88.50
2018-02-13T04:23:59.718Z,88.80
2018-02-13T04:26:27.314Z,88.80
2018-02-13T04:28:54.914Z,88.70
2018-02-13T04:31:22.494Z,88.70
2018-02-13T04:33:50.057Z,88.70
2018-02-13T04:36:17.658Z,88.50
2018-02-13T04:38:45.241Z,88.40
2018-02-13T04:41:12.872Z,88.50
2018-02-13T04:43:40.416Z,88.70
2018-02-13T04:46:08.012Z,88.80
2018-02-13T04:48:35.602Z,88.90
2018-02-13T04:51:03.199Z,88.80
2018-02-13T04:53:30.782Z,88.80
2018-02-13T04:55:58.378Z,88.50
2018-02-13T04:58:25.998Z,88.40
2018-02-13T05:00:53.937Z,88.50
2018-02-13T05:03:21.505Z,88.70
2018-02-13T05:05:49.127Z,88.80
2018-02-13T05:08:16.707Z,88.80
2018-02-13T05:10:44.301Z,88.90
2018-02-13T05:13:11.864Z,88.80
2018-02-13T05:15:39.454Z,88.80
2018-02-13T05:18:07.414Z,88.70
2018-02-13T05:20:35.022Z,88.70
2018-02-13T05:23:02.588Z,88.70
2018-02-13T05:25:30.209Z,88.60
2018-02-13T05:27:57.794Z,88.60
2018-02-13T05:30:25.399Z,88.80
2018-02-13T05:32:53.030Z,88.90
2018-02-13T05:35:20.622Z,88.80
2018-02-13T05:37:48.594Z,88.70
2018-02-13T05:40:16.197Z,88.70
2018-02-13T05:42:43.856Z,88.70
2018-02-13T05:45:11.510Z,88.80
2018-02-13T05:47:39.161Z,88.90
2018-02-13T05:50:07.111Z,89.10
2018-02-13T05:52:34.719Z,88.90
2018-02-13T05:55:02.273Z,88.80
2018-02-13T05:57:29.872Z,88.70
2018-02-13T05:59:57.477Z,88.70
2018-02-13T06:02:25.065Z,88.70
2018-02-13T06:04:52.659Z,88.50
2018-02-13T06:07:20.252Z,88.60
2018-02-13T06:09:47.834Z,88.60
2018-02-13T06:12:15.438Z,88.60
2018-02-13T06:14:43.030Z,88.50
2018-02-13T06:17:10.844Z,88.50
2018-02-13T06:19:38.400Z,88.50
2018-02-13T06:22:06.000Z,88.50
2018-02-13T06:24:33.587Z,88.50
2018-02-13T06:27:01.186Z,88.50
2018-02-13T06:29:29.162Z,88.60
2018-02-13T06:31:56.806Z,88.60
2018-02-13T06:34:24.379Z,88.80
2018-02-13T06:36:51.972Z,88.70
2018-02-13T06:39:19.628Z,88.70
2018-02-13T06:41:47.234Z,88.70
2018-02-13T06:44:14.834Z,88.70
2018-02-13T06:46:42.403Z,88.80
2018-02-13T06:49:09.990Z,88.80
2018-02-13T06:51:37.628Z,88.80
2018-02-13T06:54:05.185Z,88.80
2018-02-13T06:56:32.790Z,88.80
2018-02-13T06:59:00.380Z,88.80
2018-02-13T07:01:27.956Z,88.70
2018-02-13T07:03:55.590Z,88.70
2018-02-13T07:06:23.161Z,88.70
2018-02-13T07:08:50.752Z,88.70
2018-02-13T07:11:18.320Z,88.60
2018-02-13T07:13:46.104Z,88.50
2018-02-13T07:16:13.743Z,88.50
2018-02-13T07:18:41.672Z,88.40
2018-02-13T07:21:09.285Z,88.40
2018-02-13T07:23:36.890Z,88.50
2018-02-13T07:26:04.437Z,88.80
2018-02-13T07:28:32.053Z,89.20
2018-02-13T07:30:59.679Z,89.20
2018-02-13T07:33:27.289Z,89.20
2018-02-13T07:35:55.020Z,89.20
2018-02-13T07:38:22.660Z,89.20
2018-02-13T07:40:50.298Z,89.20
2018-02-13T07:43:17.911Z,89.20
2018-02-13T07:45:45.451Z,89.20
2018-02-13T07:48:13.046Z,89.30
2018-02-13T07:50:40.990Z,89.30
2018-02-13T07:53:08.609Z,89.30
2018-02-13T07:55:36.230Z,89.40
2018-02-13T07:58:03.851Z,89.80
2018-02-13T08:00:31.707Z,90.10
2018-02-13T08:02:59.306Z,90.10
2018-02-13T08:05:26.907Z,89.50
2018-02-13T08:07:54.494Z,88.50
2018-02-13T08:10:22.134Z,88.20
2018-02-13T08:12:49.756Z,87.90
2018-02-13T08:15:17.356Z,87.60
2018-02-13T08:17:44.899Z,87.20
2018-02-13T08:20:12.530Z,86.70
2018-02-13T08:22:40.097Z,85.70
2018-02-13T08:25:07.678Z,84.80
2018-02-13T08:27:35.258Z,84.80
2018-02-13T08:30:02.847Z,84.30
2018-02-13T08:32:30.415Z,84.10
2018-02-13T08:34:57.996Z,83.20
2018-02-13T08:37:25.578Z,83.00
2018-02-13T08:39:53.161Z,82.00
2018-02-13T08:42:20.731Z,81.50
2018-02-13T08:44:48.308Z,81.50
2018-02-13T08:47:15.865Z,81.50
2018-02-13T08:49:43.512Z,81.00
2018-02-13T08:52:11.148Z,79.60
2018-02-13T08:54:38.725Z,78.80
2018-02-13T08:57:06.322Z,78.20
2018-02-13T08:59:33.915Z,78.90
2018-02-13T09:02:01.519Z,79.30
2018-02-13T09:04:29.188Z,79.70
2018-02-13T09:06:56.774Z,80.00
2018-02-13T09:09:24.368Z,79.70
2018-02-13T09:11:51.994Z,78.30
2018-02-13T09:14:19.550Z,76.60
2018-02-13T09:16:47.130Z,76.30
2018-02-13T09:19:14.766Z,77.80
2018-02-13T09:21:42.554Z,77.90
2018-02-13T09:24:10.110Z,77.80
2018-02-13T09:26:37.681Z,76.80
2018-02-13T09:29:05.250Z,75.90
2018-02-13T09:31:32.837Z,75.30
2018-02-13T09:34:00.452Z,74.90
2018-02-13T09:36:28.051Z,73.60
2018-02-13T09:38:55.683Z,72.50
2018-02-13T09:41:23.533Z,73.10
2018-02-13T09:43:51.106Z,71.70
2018-02-13T09:46:18.773Z,71.30
2018-02-13T09:48:46.350Z,70.00
2018-02-13T09:51:14.690Z,69.90
2018-02-13T09:53:42.266Z,69.90
2018-02-13T09:56:09.843Z,71.60
2018-02-13T09:58:37.410Z,72.60
2018-02-13T10:01:05.398Z,72.70
2018-02-13T10:03:33.009Z,72.70
2018-02-13T10:06:00.609Z,71.20
2018-02-13T10:08:28.166Z,69.90
2018-02-13T10:10:55.810Z,68.40
2018-02-13T10:13:23.369Z,67.90
2018-02-13T10:15:51.340Z,65.80
2018-02-13T10:18:18.939Z,65.70
2018-02-13T10:20:46.503Z,64.90
2018-02-13T10:23:14.097Z,63.80
2018-02-13T10:25:41.680Z,63.50
2018-02-13T10:28:09.300Z,63.00
2018-02-13T10:30:36.905Z,60.70
2018-02-13T10:33:04.502Z,63.00
2018-02-13T10:35:32.072Z,61.60
2018-02-13T10:37:59.679Z,62.30
2018-02-13T10:40:27.268Z,62.20
2018-02-13T10:42:54.852Z,63.70
2018-02-13T10:45:22.467Z,59.80
2018-02-13T10:47:50.060Z,60.80
2018-02-13T10:50:17.687Z,63.00
2018-02-13T10:52:45.282Z,61.40
2018-02-13T10:55:12.862Z,59.60
2018-02-13T10:57:40.464Z,60.20
2018-02-13T11:00:08.053Z,58.80
2018-02-13T11:02:35.627Z,60.70
2018-02-13T11:05:03.267Z,59.00
2018-02-13T11:07:30.868Z,58.60
2018-02-13T11:09:58.486Z,57.80
2018-02-13T11:12:26.069Z,58.50
2018-02-13T11:14:53.628Z,57.90
2018-02-13T11:17:21.207Z,57.60
2018-02-13T11:19:49.178Z,58.70
2018-02-13T11:22:18.314Z,58.70
2018-02-13T11:24:45.959Z,59.00
2018-02-13T11:27:13.535Z,57.50
2018-02-13T11:29:41.084Z,58.80
2018-02-13T11:32:08.666Z,57.90
2018-02-13T11:34:36.318Z,57.20
2018-02-13T11:37:03.897Z,57.40
2018-02-13T11:39:31.534Z,57.40
2018-02-13T11:41:59.092Z,58.10
2018-02-13T11:44:26.944Z,58.20
2018-02-13T11:46:54.495Z,57.50
2018-02-13T11:49:22.071Z,58.20
2018-02-13T11:51:49.667Z,56.90
2018-02-13T11:54:17.289Z,57.30
2018-02-13T11:56:44.951Z,56.40
2018-02-13T11:59:12.505Z,58.20
2018-02-13T12:01:40.188Z,57.60
2018-02-13T12:04:07.815Z,58.00
2018-02-13T12:06:35.367Z,57.00
2018-02-13T12:09:03.009Z,55.70
2018-02-13T12:11:30.634Z,55.20
2018-02-13T12:13:58.234Z,54.20
2018-02-13T12:16:27.395Z,55.10
2018-02-13T12:18:54.998Z,55.50
2018-02-13T12:21:22.573Z,55.40
2018-02-13T12:23:50.167Z,55.10
2018-02-13T12:26:17.719Z,56.30
2018-02-13T12:28:45.301Z,55.10
2018-02-13T12:31:12.881Z,55.30
2018-02-13T12:33:40.431Z,55.80
2018-02-13T12:36:08.248Z,54.50
2018-02-13T12:38:35.799Z,55.50
2018-02-13T12:41:03.391Z,56.00
2018-02-13T12:43:30.999Z,55.70
2018-02-13T12:45:58.586Z,55.70
2018-02-13T12:48:26.120Z,55.30
2018-02-13T12:50:53.690Z,55.40
2018-02-13T12:53:21.282Z,56.10
2018-02-13T12:55:48.890Z,56.30
2018-02-13T12:58:16.498Z,56.10
2018-02-13T13:00:44.099Z,55.60
2018-02-13T13:03:11.834Z,55.10
2018-02-13T13:05:40.269Z,55.20
2018-02-13T13:08:07.853Z,55.20
2018-02-13T13:10:35.514Z,53.90
2018-02-13T13:13:03.082Z,53.90
2018-02-13T13:15:30.685Z,53.30
2018-02-13T13:17:58.248Z,53.90
2018-02-13T13:20:25.867Z,53.20
2018-02-13T13:22:53.424Z,53.40
2018-02-13T13:25:21.050Z,53.90
2018-02-13T13:27:48.589Z,54.00
2018-02-13T13:30:16.170Z,52.50
2018-02-13T13:32:43.752Z,53.10
2018-02-13T13:35:11.346Z,53.30
2018-02-13T13:37:38.944Z,52.80
2018-02-13T13:40:06.533Z,53.60
2018-02-13T13:42:34.245Z,52.60
2018-02-13T13:45:01.838Z,52.90
2018-02-13T13:47:29.426Z,52.60
2018-02-13T13:49:57.353Z,52.70
2018-02-13T13:52:24.990Z,52.60
2018-02-13T13:54:52.540Z,52.80
2018-02-13T13:57:20.821Z,54.30
2018-02-13T13:59:48.432Z,54.30
2018-02-13T14:02:16.050Z,53.40
2018-02-13T14:04:43.638Z,52.40
2018-02-13T14:07:11.230Z,52.40
2018-02-13T14:09:38.802Z,52.80
2018-02-13T14:12:06.396Z,52.60
2018-02-13T14:14:34.342Z,52.20
2018-02-13T14:17:02.615Z,53.20
2018-02-13T14:19:30.205Z,53.10
2018-02-13T14:21:57.803Z,52.70
2018-02-13T14:24:25.373Z,52.80
2018-02-13T14:26:52.992Z,52.40
2018-02-13T14:29:20.614Z,51.60
2018-02-13T14:31:48.218Z,51.50
2018-02-13T14:34:16.167Z,51.80
2018-02-13T14:36:43.759Z,51.80
2018-02-13T14:39:11.398Z,51.50
2018-02-13T14:41:39.038Z,51.70
2018-02-13T14:44:06.648Z,51.20
2018-02-13T14:46:34.250Z,50.80
2018-02-13T14:49:01.834Z,50.20
2018-02-13T14:51:29.420Z,50.50
2018-02-13T14:53:57.047Z,50.20
2018-02-13T14:56:24.629Z,50.40
2018-02-13T14:58:52.610Z,50.40
2018-02-13T15:01:20.171Z,50.40
2018-02-13T15:03:47.759Z,49.50
2018-02-13T15:06:15.414Z,48.20
2018-02-13T15:08:42.995Z,48.30
2018-02-13T15:11:10.594Z,47.90
2018-02-13T15:13:38.178Z,47.60
2018-02-13T15:16:05.760Z,47.30
2018-02-13T15:18:38.007Z,46.80
2018-02-13T15:21:05.567Z,46.10
2018-02-13T15:23:33.158Z,46.00
2018-02-13T15:26:00.710Z,45.00
2018-02-13T15:28:28.326Z,44.80
2018-02-13T15:30:55.925Z,44.00
2018-02-13T15:33:23.539Z,43.80
2018-02-13T15:35:51.106Z,45.40
2018-02-13T15:38:18.698Z,44.40
2018-02-13T15:40:46.284Z,44.40
2018-02-13T15:43:14.709Z,44.90
2018-02-13T15:45:42.295Z,44.60
2018-02-13T15:48:09.864Z,45.20
2018-02-13T15:50:37.486Z,45.20
2018-02-13T15:53:05.070Z,44.80
2018-02-13T15:55:32.709Z,45.20
2018-02-13T15:58:00.255Z,45.40
2018-02-13T16:00:27.831Z,45.90
2018-02-13T16:02:55.737Z,45.60
2018-02-13T16:05:23.336Z,46.00
2018-02-13T16:07:50.915Z,47.00
2018-02-13T16:10:18.575Z,48.20
2018-02-13T16:12:46.223Z,50.70
2018-02-13T16:15:13.826Z,52.40
2018-02-13T16:17:41.372Z,53.20
2018-02-13T16:20:08.956Z,54.30
2018-02-13T16:22:36.814Z,54.90
2018-02-13T16:25:04.840Z,56.60
2018-02-13T16:27:32.499Z,56.60
2018-02-13T16:30:00.128Z,57.30
2018-02-13T16:32:27.697Z,57.40
2018-02-13T16:34:55.284Z,58.20
2018-02-13T16:37:22.925Z,58.50
2018-02-13T16:39:50.527Z,58.80
2018-02-13T16:42:18.109Z,59.00
2018-02-13T16:44:45.727Z,59.30
2018-02-13T16:47:13.307Z,59.30
2018-02-13T16:49:40.906Z,60.20
2018-02-13T16:52:08.473Z,60.30
2018-02-13T16:54:36.081Z,60.30
2018-02-13T16:57:03.694Z,60.30
2018-02-13T16:59:31.270Z,60.90
2018-02-13T17:01:58.854Z,61.50
2018-02-13T17:04:26.409Z,62.30
2018-02-13T17:06:54.040Z,62.70
2018-02-13T17:09:21.628Z,63.20
2018-02-13T17:11:49.593Z,63.90
2018-02-13T17:14:17.146Z,64.30
2018-02-13T17:16:44.706Z,64.60
2018-02-13T17:19:12.454Z,65.00
2018-02-13T17:21:40.213Z,65.70
2018-02-13T17:24:07.780Z,66.00
2018-02-13T17:26:35.353Z,66.20
2018-02-13T17:29:02.903Z,66.40
2018-02-13T17:31:30.491Z,66.80
2018-02-13T17:33:58.091Z,67.00
2018-02-13T17:36:25.694Z,67.30
2018-02-13T17:38:53.243Z,67.70
2018-02-13T17:41:20.821Z,68.20
2018-02-13T17:43:48.402Z,68.50
2018-02-13T17:46:16.009Z,68.60
2018-02-13T17:48:43.578Z,68.90
2018-02-13T17:51:11.190Z,70.10
2018-02-13T17:53:38.762Z,70.00
2018-02-13T17:56:06.353Z,70.10
2018-02-13T17:58:33.938Z,70.80
2018-02-13T18:01:01.511Z,70.50
2018-02-13T18:03:29.127Z,70.20
2018-02-13T18:05:56.706Z,70.60
2018-02-13T18:08:24.677Z,71.30
2018-02-13T18:10:52.500Z,71.30
2018-02-13T18:13:20.163Z,71.60
2018-02-13T18:15:47.745Z,71.40
2018-02-13T18:18:15.334Z,71.70
2018-02-13T18:20:42.961Z,72.10
2018-02-13T18:23:10.548Z,72.40
2018-02-13T18:25:38.149Z,72.30
2018-02-13T18:28:05.769Z,72.40
2018-02-13T18:30:33.399Z,72.30
2018-02-13T18:33:01.196Z,72.60
2018-02-13T18:35:28.796Z,72.90
2018-02-13T18:37:56.382Z,73.00
2018-02-13T18:40:23.997Z,73.10
2018-02-13T18:42:51.595Z,73.50
2018-02-13T18:45:19.203Z,73.50
2018-02-13T18:47:46.807Z,73.50
2018-02-13T18:50:14.459Z,73.60
2018-02-13T18:55:09.654Z,74.10
2018-02-13T18:57:37.263Z,74.00
2018-02-13T19:00:04.865Z,74.10
2018-02-13T19:02:32.450Z,74.10
2018-02-13T19:05:00.014Z,74.10
2018-02-13T19:07:27.630Z,74.40
2018-02-13T19:09:55.291Z,74.80
2018-02-13T19:12:23.148Z,74.80
2018-02-13T19:14:50.778Z,75.10
2018-02-13T19:17:18.376Z,75.20
2018-02-13T19:19:46.095Z,75.40
2018-02-13T19:22:13.717Z,75.50
2018-02-13T19:24:41.346Z,75.40
2018-02-13T19:27:08.912Z,75.60
2018-02-13T19:29:36.554Z,75.60
2018-02-13T19:32:04.210Z,75.40
2018-02-13T19:34:31.853Z,75.20
2018-02-13T19:36:59.447Z,75.20
2018-02-13T19:39:27.043Z,75.20
2018-02-13T19:41:54.676Z,75.20
2018-02-13T19:44:22.261Z,75.10
2018-02-13T19:46:49.829Z,75.00
2018-02-13T19:49:17.434Z,75.20
2018-02-13T19:51:45.025Z,75.40
2018-02-13T19:54:12.625Z,75.50
2018-02-13T19:56:40.217Z,75.50
2018-02-13T19:59:07.803Z,75.40
2018-02-13T20:01:35.403Z,75.20
2018-02-13T20:04:03.017Z,75.20
2018-02-13T20:06:30.887Z,75.20
2018-02-13T20:08:58.475Z,75.20
2018-02-13T20:11:26.110Z,75.10
2018-02-13T20:13:53.779Z,75.20
2018-02-13T20:16:22.157Z,75.30
2018-02-13T20:18:49.744Z,75.50
2018-02-13T20:21:17.353Z,75.70
2018-02-13T20:23:44.942Z,75.80
2018-02-13T20:26:12.590Z,75.90
2018-02-13T20:28:40.163Z,76.20
2018-02-13T20:31:07.781Z,76.00
2018-02-13T20:33:35.426Z,75.90
2018-02-13T20:36:03.020Z,76.00
2018-02-13T20:38:30.599Z,76.30
2018-02-13T20:40:58.449Z,76.30
2018-02-13T20:43:26.212Z,76.40
2018-02-13T20:45:53.820Z,76.40
2018-02-13T20:48:21.394Z,76.50
2018-02-13T20:50:49.007Z,76.40
2018-02-13T20:53:16.566Z,76.50
2018-02-13T20:55:44.211Z,76.60
2018-02-13T20:58:11.830Z,76.40
2018-02-13T21:00:39.679Z,76.40
2018-02-13T21:03:07.254Z,76.50
2018-02-13T21:05:34.847Z,76.70
2018-02-13T21:08:02.431Z,76.70
2018-02-13T21:10:30.047Z,76.80
2018-02-13T21:12:57.647Z,76.70
2018-02-13T21:15:25.298Z,76.60
2018-02-13T21:17:52.883Z,76.70
2018-02-13T21:20:20.489Z,76.70
2018-02-13T21:22:48.095Z,76.90
2018-02-13T21:25:16.092Z,77.00
2018-02-13T21:27:43.730Z,77.00
2018-02-13T21:30:11.529Z,77.30
2018-02-13T21:32:39.155Z,77.30
2018-02-13T21:35:06.737Z,77.40
2018-02-13T21:37:34.381Z,77.70
2018-02-13T21:40:01.959Z,77.90
2018-02-13T21:42:30.161Z,78.00
2018-02-13T21:44:57.723Z,78.20
2018-02-13T21:47:25.346Z,78.70
2018-02-13T21:49:52.968Z,78.70
2018-02-13T21:52:20.581Z,78.70
2018-02-13T21:54:48.160Z,78.80
2018-02-13T21:57:15.797Z,79.10
2018-02-13T21:59:43.368Z,79.30
2018-02-13T22:02:11.004Z,79.40
2018-02-13T22:04:38.743Z,79.40
2018-02-13T22:07:10.168Z,79.50
2018-02-13T22:09:37.738Z,79.60
2018-02-13T22:12:11.036Z,79.80
2018-02-13T22:14:39.026Z,80.00
2018-02-13T22:17:06.634Z,80.00
2018-02-13T22:19:34.209Z,80.10
2018-02-13T22:22:01.816Z,80.00
2018-02-13T22:24:29.442Z,79.90
2018-02-13T22:26:57.264Z,79.70
2018-02-13T22:29:24.871Z,79.80
2018-02-13T22:31:52.458Z,79.90
2018-02-13T22:34:20.347Z,79.90
2018-02-13T22:36:47.946Z,79.90
2018-02-13T22:39:15.539Z,79.80
2018-02-13T22:41:43.120Z,79.90
2018-02-13T22:44:10.705Z,79.60
2018-02-13T22:46:38.266Z,80.10
2018-02-13T22:49:05.894Z,80.00
2018-02-13T22:51:33.463Z,80.00
2018-02-13T22:54:01.447Z,80.20
2018-02-13T22:56:29.290Z,80.20
2018-02-13T22:58:56.945Z,79.90
2018-02-13T23:01:24.503Z,80.00
2018-02-13T23:03:52.476Z,80.10
2018-02-13T23:06:20.083Z,80.70
2018-02-13T23:08:47.697Z,80.90
2018-02-13T23:11:15.286Z,81.10
2018-02-13T23:13:42.882Z,81.10
2018-02-13T23:16:10.491Z,81.40
2018-02-13T23:18:38.140Z,81.60
2018-02-13T23:21:05.714Z,81.70
2018-02-13T23:23:33.349Z,81.60
2018-02-13T23:26:00.950Z,81.70
2018-02-13T23:28:28.550Z,81.90
2018-02-13T23:30:56.115Z,81.90
2018-02-13T23:33:23.750Z,81.70
2018-02-13T23:35:51.359Z,82.20
2018-02-13T23:38:18.944Z,82.40
2018-02-13T23:40:46.556Z,82.30
2018-02-13T23:43:14.115Z,81.90
2018-02-13T23:45:41.715Z,81.70
2018-02-13T23:48:09.301Z,81.60
2018-02-13T23:50:36.943Z,81.90
2018-02-13T23:53:04.918Z,82.20
2018-02-13T23:55:32.588Z,82.20
2018-02-13T23:58:00.230Z,83.40
